createdAt,value
2018-09-28T00:00:03.947Z,12.40
2018-09-28T00:01:08.205Z,12.40
2018-09-28T00:02:12.448Z,12.40
2018-09-28T00:03:16.997Z,12.50
2018-09-28T00:04:21.559Z,12.50
2018-09-28T00:05:25.829Z,12.50
2018-09-28T00:06:30.303Z,12.40
2018-09-28T00:07:34.692Z,12.50
2018-09-28T00:08:39.018Z,12.50
2018-09-28T00:09:43.438Z,12.50
2018-09-28T00:10:47.698Z,12.50
2018-09-28T00:11:52.279Z,12.50
2018-09-28T00:12:56.788Z,12.50
2018-09-28T00:14:00.904Z,12.50
2018-09-28T00:15:05.469Z,12.50
2018-09-28T00:16:09.820Z,12.50
2018-09-28T00:17:14.185Z,12.50
2018-09-28T00:18:18.505Z,12.50
2018-09-28T00:19:22.851Z,12.40
2018-09-28T00:20:27.308Z,12.50
2018-09-28T00:21:31.741Z,12.40
2018-09-28T00:22:36.095Z,12.40
2018-09-28T00:23:40.334Z,12.40
2018-09-28T00:24:44.746Z,12.40
2018-09-28T00:25:49.277Z,12.30
2018-09-28T00:26:53.512Z,12.30
2018-09-28T00:27:57.654Z,12.40
2018-09-28T00:29:01.713Z,12.30
2018-09-28T00:30:06.338Z,12.30
2018-09-28T00:31:10.588Z,12.30
2018-09-28T00:32:15.234Z,12.30
2018-09-28T00:33:19.742Z,12.20
2018-09-28T00:34:24.117Z,12.30
2018-09-28T00:35:28.339Z,12.30
2018-09-28T00:36:32.649Z,12.30
2018-09-28T00:37:37.198Z,12.30
2018-09-28T00:38:41.789Z,12.30
2018-09-28T00:39:46.231Z,12.30
2018-09-28T00:40:50.741Z,12.30
2018-09-28T00:41:55.354Z,12.30
2018-09-28T00:42:59.536Z,12.30
2018-09-28T00:44:03.678Z,12.20
2018-09-28T00:45:07.790Z,12.20
2018-09-28T00:46:12.067Z,12.20
2018-09-28T00:47:16.491Z,12.20
2018-09-28T00:48:20.724Z,12.20
2018-09-28T00:49:25.142Z,12.30
2018-09-28T00:50:29.256Z,12.30
2018-09-28T00:51:33.636Z,12.30
2018-09-28T00:52:37.834Z,12.30
2018-09-28T00:53:42.186Z,12.30
2018-09-28T00:54:46.622Z,12.30
2018-09-28T00:55:50.838Z,12.30
2018-09-28T00:56:55.219Z,12.20
2018-09-28T00:57:59.626Z,12.20
2018-09-28T00:59:04.185Z,12.20
2018-09-28T01:00:08.430Z,12.20
2018-09-28T01:01:12.878Z,12.20
2018-09-28T01:02:17.017Z,12.20
2018-09-28T01:03:21.203Z,12.20
2018-09-28T01:04:25.571Z,12.30
2018-09-28T01:05:29.714Z,12.30
2018-09-28T01:06:33.817Z,12.30
2018-09-28T01:07:38.554Z,12.30
2018-09-28T01:08:43.323Z,12.30
2018-09-28T01:09:47.671Z,12.20
2018-09-28T01:10:52.077Z,12.20
2018-09-28T01:11:56.522Z,12.30
2018-09-28T01:13:00.678Z,12.30
2018-09-28T01:14:04.808Z,12.20
2018-09-28T01:15:08.929Z,12.20
2018-09-28T01:16:13.873Z,12.20
2018-09-28T01:17:18.162Z,12.20
2018-09-28T01:18:22.250Z,12.20
2018-09-28T01:19:26.921Z,12.30
2018-09-28T01:20:31.103Z,12.30
2018-09-28T01:21:35.641Z,12.30
2018-09-28T01:22:40.038Z,12.30
2018-09-28T01:23:44.473Z,12.30
2018-09-28T01:24:48.982Z,12.30
2018-09-28T01:25:53.124Z,12.30
2018-09-28T01:26:57.375Z,12.30
2018-09-28T01:28:01.596Z,12.30
2018-09-28T01:29:05.787Z,12.30
2018-09-28T01:30:10.102Z,12.30
2018-09-28T01:31:14.418Z,12.30
2018-09-28T01:32:18.779Z,12.20
2018-09-28T01:33:22.878Z,12.20
2018-09-28T01:34:27.530Z,12.30
2018-09-28T01:35:32.141Z,12.30
2018-09-28T01:36:36.763Z,12.30
2018-09-28T01:37:40.917Z,12.30
2018-09-28T01:38:45.137Z,12.30
2018-09-28T01:39:49.731Z,12.30
2018-09-28T01:40:54.144Z,12.30
2018-09-28T01:41:58.518Z,12.30
2018-09-28T01:43:02.807Z,12.30
2018-09-28T01:44:07.253Z,12.30
2018-09-28T01:45:11.373Z,12.30
2018-09-28T01:46:15.712Z,12.20
2018-09-28T01:47:20.360Z,12.20
2018-09-28T01:48:24.638Z,12.30
2018-09-28T01:49:29.011Z,12.30
2018-09-28T01:50:33.289Z,12.20
2018-09-28T01:51:37.481Z,12.20
2018-09-28T01:52:41.902Z,12.20
2018-09-28T01:53:46.583Z,12.20
2018-09-28T01:54:51.059Z,12.20
2018-09-28T01:55:55.395Z,12.20
2018-09-28T01:56:59.847Z,12.10
2018-09-28T01:58:04.078Z,12.10
2018-09-28T01:59:08.246Z,12.10
2018-09-28T02:00:12.936Z,12.10
2018-09-28T02:01:17.163Z,12.10
2018-09-28T02:02:21.559Z,12.10
2018-09-28T02:03:25.810Z,12.10
2018-09-28T02:04:30.093Z,12.10
2018-09-28T02:05:34.286Z,12.10
2018-09-28T02:06:38.717Z,12.10
2018-09-28T02:07:42.992Z,12.10
2018-09-28T02:08:47.335Z,12.10
2018-09-28T02:09:51.467Z,12.10
2018-09-28T02:10:55.950Z,12.10
2018-09-28T02:12:00.609Z,12.20
2018-09-28T02:13:04.925Z,12.20
2018-09-28T02:14:09.331Z,12.10
2018-09-28T02:15:13.532Z,12.20
2018-09-28T02:16:17.779Z,12.20
2018-09-28T02:17:21.999Z,12.20
2018-09-28T02:18:26.516Z,12.10
2018-09-28T02:19:30.721Z,12.10
2018-09-28T02:20:35.144Z,12.10
2018-09-28T02:21:39.436Z,12.10
2018-09-28T02:22:43.598Z,12.10
2018-09-28T02:23:47.691Z,12.10
2018-09-28T02:24:52.062Z,12.10
2018-09-28T02:25:56.166Z,12.10
2018-09-28T02:27:00.253Z,12.10
2018-09-28T02:28:04.309Z,12.10
2018-09-28T02:29:09.131Z,12.10
2018-09-28T02:30:13.269Z,12.10
2018-09-28T02:31:17.490Z,12.10
2018-09-28T02:32:22.102Z,12.10
2018-09-28T02:33:26.517Z,12.00
2018-09-28T02:34:30.978Z,12.10
2018-09-28T02:35:35.561Z,12.10
2018-09-28T02:36:39.958Z,12.10
2018-09-28T02:37:44.410Z,12.10
2018-09-28T02:38:48.626Z,12.10
2018-09-28T02:39:53.333Z,12.10
2018-09-28T02:40:57.769Z,12.10
2018-09-28T02:42:01.983Z,12.10
2018-09-28T02:43:06.506Z,12.00
2018-09-28T02:44:10.872Z,12.00
2018-09-28T02:45:15.617Z,12.00
2018-09-28T02:46:19.703Z,12.00
2018-09-28T02:47:24.011Z,12.10
2018-09-28T02:48:28.599Z,12.10
2018-09-28T02:49:33.214Z,12.10
2018-09-28T02:50:37.539Z,12.10
2018-09-28T02:51:42.234Z,12.10
2018-09-28T02:52:46.621Z,12.20
2018-09-28T02:53:50.767Z,12.20
2018-09-28T02:54:55.002Z,12.20
2018-09-28T02:55:59.441Z,12.10
2018-09-28T02:57:04.223Z,12.20
2018-09-28T02:58:08.555Z,12.10
2018-09-28T02:59:12.989Z,12.20
2018-09-28T03:00:17.166Z,12.20
2018-09-28T03:01:21.563Z,12.20
2018-09-28T03:02:25.886Z,12.20
2018-09-28T03:03:30.095Z,12.20
2018-09-28T03:04:34.358Z,12.20
2018-09-28T03:05:39.085Z,12.20
2018-09-28T03:06:43.250Z,12.20
2018-09-28T03:07:47.592Z,12.10
2018-09-28T03:08:51.963Z,12.10
2018-09-28T03:09:56.305Z,12.10
2018-09-28T03:11:00.967Z,12.10
2018-09-28T03:12:05.210Z,12.10
2018-09-28T03:13:09.486Z,12.00
2018-09-28T03:14:13.565Z,12.00
2018-09-28T03:15:17.665Z,12.00
2018-09-28T03:16:22.170Z,12.10
2018-09-28T03:17:26.833Z,12.10
2018-09-28T03:18:31.193Z,12.20
2018-09-28T03:19:35.412Z,12.20
2018-09-28T03:20:40.080Z,12.20
2018-09-28T03:21:44.357Z,12.20
2018-09-28T03:22:48.687Z,12.20
2018-09-28T03:23:52.937Z,12.20
2018-09-28T03:24:57.263Z,12.20
2018-09-28T03:26:01.552Z,12.10
2018-09-28T03:27:05.549Z,12.10
2018-09-28T03:28:12.474Z,12.20
2018-09-28T03:29:19.508Z,12.20
2018-09-28T03:30:23.955Z,12.20
2018-09-28T03:31:28.486Z,12.20
2018-09-28T03:32:32.952Z,12.20
2018-09-28T03:33:37.408Z,12.20
2018-09-28T03:34:41.752Z,12.20
2018-09-28T03:35:46.406Z,12.20
2018-09-28T03:36:50.593Z,12.20
2018-09-28T03:37:54.874Z,12.20
2018-09-28T03:38:59.308Z,12.10
2018-09-28T03:40:03.435Z,12.20
2018-09-28T03:41:07.585Z,12.10
2018-09-28T03:42:11.974Z,12.20
2018-09-28T03:43:16.475Z,12.20
2018-09-28T03:44:21.230Z,12.20
2018-09-28T03:45:25.502Z,12.20
2018-09-28T03:46:29.696Z,12.20
2018-09-28T03:47:34.115Z,12.20
2018-09-28T03:48:38.623Z,12.20
2018-09-28T03:49:42.974Z,12.20
2018-09-28T03:50:47.150Z,12.10
2018-09-28T03:51:51.476Z,12.20
2018-09-28T03:52:55.714Z,12.20
2018-09-28T03:53:59.881Z,12.20
2018-09-28T03:55:04.225Z,12.20
2018-09-28T03:56:08.894Z,12.20
2018-09-28T03:57:13.195Z,12.20
2018-09-28T03:58:18.583Z,12.20
2018-09-28T03:59:23.311Z,12.20
2018-09-28T04:00:27.563Z,12.20
2018-09-28T04:01:31.746Z,12.20
2018-09-28T04:02:35.972Z,12.20
2018-09-28T04:03:40.384Z,12.20
2018-09-28T04:04:44.947Z,12.20
2018-09-28T04:05:49.260Z,12.20
2018-09-28T04:06:53.394Z,12.20
2018-09-28T04:07:57.587Z,12.20
2018-09-28T04:09:02.342Z,12.10
2018-09-28T04:10:07.653Z,12.20
2018-09-28T04:11:11.824Z,12.20
2018-09-28T04:12:16.123Z,12.20
2018-09-28T04:13:20.461Z,12.20
2018-09-28T04:14:24.960Z,12.20
2018-09-28T04:15:29.197Z,12.20
2018-09-28T04:16:33.663Z,12.20
2018-09-28T04:17:38.117Z,12.20
2018-09-28T04:18:42.376Z,12.20
2018-09-28T04:19:46.923Z,12.20
2018-09-28T04:20:51.538Z,12.20
2018-09-28T04:21:59.062Z,12.20
2018-09-28T04:23:03.405Z,12.20
2018-09-28T04:24:07.854Z,12.20
2018-09-28T04:25:12.113Z,12.20
2018-09-28T04:26:16.371Z,12.20
2018-09-28T04:27:20.966Z,12.20
2018-09-28T04:28:25.499Z,12.20
2018-09-28T04:29:29.873Z,12.20
2018-09-28T04:30:34.271Z,12.20
2018-09-28T04:31:38.807Z,12.20
2018-09-28T04:32:43.049Z,12.20
2018-09-28T04:33:47.374Z,12.20
2018-09-28T04:34:51.809Z,12.20
2018-09-28T04:35:56.131Z,12.10
2018-09-28T04:37:00.821Z,12.20
2018-09-28T04:38:05.193Z,12.20
2018-09-28T04:39:09.522Z,12.10
2018-09-28T04:40:13.924Z,12.10
2018-09-28T04:41:18.267Z,12.20
2018-09-28T04:42:22.657Z,12.20
2018-09-28T04:43:26.936Z,12.20
2018-09-28T04:44:31.136Z,12.20
2018-09-28T04:45:35.592Z,12.20
2018-09-28T04:46:40.062Z,12.20
2018-09-28T04:47:44.387Z,12.20
2018-09-28T04:48:49.007Z,12.20
2018-09-28T04:49:53.524Z,12.20
2018-09-28T04:50:57.672Z,12.20
2018-09-28T04:52:01.895Z,12.30
2018-09-28T04:53:06.427Z,12.30
2018-09-28T04:54:10.733Z,12.20
2018-09-28T04:55:15.049Z,12.30
2018-09-28T04:56:19.529Z,12.30
2018-09-28T04:57:24.134Z,12.30
2018-09-28T04:58:28.679Z,12.30
2018-09-28T04:59:33.671Z,12.40
2018-09-28T05:00:38.225Z,12.30
2018-09-28T05:01:42.540Z,12.30
2018-09-28T05:02:46.698Z,12.30
2018-09-28T05:03:51.101Z,12.40
2018-09-28T05:04:55.363Z,12.40
2018-09-28T05:05:59.681Z,12.40
2018-09-28T05:07:04.003Z,12.40
2018-09-28T05:08:08.286Z,12.40
2018-09-28T05:09:13.928Z,12.40
2018-09-28T05:10:18.213Z,12.40
2018-09-28T05:11:22.905Z,12.40
2018-09-28T05:12:27.311Z,12.40
2018-09-28T05:13:31.968Z,12.40
2018-09-28T05:14:36.098Z,12.40
2018-09-28T05:15:40.454Z,12.30
2018-09-28T05:16:44.938Z,12.30
2018-09-28T05:17:49.151Z,12.30
2018-09-28T05:18:53.585Z,12.30
2018-09-28T05:19:57.971Z,12.30
2018-09-28T05:21:02.406Z,12.20
2018-09-28T05:22:06.910Z,12.20
2018-09-28T05:23:11.079Z,12.20
2018-09-28T05:24:15.325Z,12.20
2018-09-28T05:25:19.531Z,12.20
2018-09-28T05:26:23.964Z,12.30
2018-09-28T05:27:28.210Z,12.20
2018-09-28T05:28:32.402Z,12.20
2018-09-28T05:29:36.967Z,12.20
2018-09-28T05:30:44.973Z,12.30
2018-09-28T05:31:46.112Z,12.30
2018-09-28T05:32:50.343Z,12.30
2018-09-28T05:33:55.071Z,12.30
2018-09-28T05:34:59.273Z,12.40
2018-09-28T05:36:03.785Z,12.30
2018-09-28T05:37:07.997Z,12.30
2018-09-28T05:38:12.466Z,12.30
2018-09-28T05:39:16.707Z,12.30
2018-09-28T05:40:20.983Z,12.30
2018-09-28T05:41:25.185Z,12.30
2018-09-28T05:42:29.439Z,12.20
2018-09-28T05:43:33.580Z,12.20
2018-09-28T05:44:37.792Z,12.20
2018-09-28T05:45:41.985Z,12.20
2018-09-28T05:46:46.534Z,12.30
2018-09-28T05:47:50.749Z,12.40
2018-09-28T05:48:55.031Z,12.40
2018-09-28T05:49:59.540Z,12.40
2018-09-28T05:51:04.021Z,12.40
2018-09-28T05:52:08.355Z,12.40
2018-09-28T05:53:12.437Z,12.50
2018-09-28T05:54:16.801Z,12.40
2018-09-28T05:55:29.018Z,12.40
2018-09-28T05:56:33.036Z,12.40
2018-09-28T05:57:37.240Z,12.40
2018-09-28T05:58:46.977Z,12.40
2018-09-28T05:59:56.404Z,12.40
2018-09-28T06:01:06.030Z,12.40
2018-09-28T06:02:15.652Z,12.40
2018-09-28T06:03:21.105Z,12.40
2018-09-28T06:04:30.938Z,12.40
2018-09-28T06:05:39.479Z,12.40
2018-09-28T06:06:43.570Z,12.50
2018-09-28T06:07:48.058Z,12.40
2018-09-28T06:08:52.425Z,12.40
2018-09-28T06:09:56.987Z,12.40
2018-09-28T06:11:01.380Z,12.40
2018-09-28T06:12:05.710Z,12.50
2018-09-28T06:13:09.902Z,12.50
2018-09-28T06:14:14.185Z,12.50
2018-09-28T06:15:18.392Z,12.50
2018-09-28T06:16:29.252Z,12.50
2018-09-28T06:17:35.514Z,12.50
2018-09-28T06:18:40.011Z,12.50
2018-09-28T06:19:44.132Z,12.50
2018-09-28T06:20:48.588Z,12.60
2018-09-28T06:21:59.471Z,12.60
2018-09-28T06:23:03.870Z,12.60
2018-09-28T06:24:08.142Z,12.70
2018-09-28T06:25:12.495Z,12.70
2018-09-28T06:26:16.956Z,12.70
2018-09-28T06:27:21.973Z,12.70
2018-09-28T06:28:26.177Z,12.80
2018-09-28T06:29:30.724Z,12.90
2018-09-28T06:30:35.018Z,12.90
2018-09-28T06:31:39.338Z,13.00
2018-09-28T06:32:43.581Z,13.00
2018-09-28T06:33:48.217Z,13.00
2018-09-28T06:34:52.532Z,13.00
2018-09-28T06:35:57.103Z,13.00
2018-09-28T06:37:01.343Z,13.00
2018-09-28T06:38:05.495Z,13.00
2018-09-28T06:39:09.976Z,13.10
2018-09-28T06:40:14.490Z,13.10
2018-09-28T06:41:18.670Z,13.10
2018-09-28T06:42:23.126Z,13.20
2018-09-28T06:43:27.609Z,13.20
2018-09-28T06:44:32.028Z,13.20
2018-09-28T06:45:36.579Z,13.20
2018-09-28T06:46:40.847Z,13.20
2018-09-28T06:47:45.412Z,13.20
2018-09-28T06:48:49.697Z,13.20
2018-09-28T06:49:54.138Z,13.20
2018-09-28T06:50:58.633Z,13.30
2018-09-28T06:52:03.295Z,13.30
2018-09-28T06:53:07.548Z,13.30
2018-09-28T06:54:11.956Z,13.40
2018-09-28T06:55:16.220Z,13.40
2018-09-28T06:56:20.711Z,13.40
2018-09-28T06:57:25.188Z,13.40
2018-09-28T06:58:35.284Z,13.50
2018-09-28T06:59:39.636Z,13.50
2018-09-28T07:00:43.923Z,13.60
2018-09-28T07:01:48.216Z,13.60
2018-09-28T07:02:52.717Z,13.60
2018-09-28T07:03:57.158Z,13.70
2018-09-28T07:05:01.559Z,13.70
2018-09-28T07:06:05.856Z,13.70
2018-09-28T07:07:10.386Z,13.70
2018-09-28T07:08:14.635Z,13.90
2018-09-28T07:09:19.187Z,13.90
2018-09-28T07:10:23.861Z,13.90
2018-09-28T07:11:28.490Z,13.90
2018-09-28T07:12:33.283Z,14.00
2018-09-28T07:13:39.063Z,14.00
2018-09-28T07:14:43.702Z,14.00
2018-09-28T07:15:48.096Z,14.00
2018-09-28T07:16:52.770Z,14.10
2018-09-28T07:17:57.058Z,14.10
2018-09-28T07:19:01.380Z,14.20
2018-09-28T07:20:05.718Z,14.20
2018-09-28T07:21:09.956Z,14.30
2018-09-28T07:22:14.456Z,14.30
2018-09-28T07:23:18.735Z,14.30
2018-09-28T07:24:23.383Z,14.30
2018-09-28T07:25:27.706Z,14.30
2018-09-28T07:26:32.092Z,14.40
2018-09-28T07:27:36.300Z,14.40
2018-09-28T07:28:40.591Z,14.50
2018-09-28T07:29:45.202Z,14.50
2018-09-28T07:30:49.740Z,14.50
2018-09-28T07:31:54.236Z,14.60
2018-09-28T07:32:58.658Z,14.70
2018-09-28T07:34:02.941Z,14.70
2018-09-28T07:35:07.333Z,14.70
2018-09-28T07:36:12.179Z,14.80
2018-09-28T07:37:16.451Z,14.80
2018-09-28T07:38:20.604Z,14.90
2018-09-28T07:39:24.890Z,15.00
2018-09-28T07:40:29.325Z,14.90
2018-09-28T07:41:33.524Z,15.00
2018-09-28T07:42:37.702Z,15.10
2018-09-28T07:43:42.092Z,15.20
2018-09-28T07:44:46.477Z,15.20
2018-09-28T07:45:50.826Z,15.20
2018-09-28T07:46:55.026Z,15.30
2018-09-28T07:47:59.425Z,15.40
2018-09-28T07:49:03.901Z,15.40
2018-09-28T07:50:08.472Z,15.50
2018-09-28T07:51:22.071Z,15.50
2018-09-28T07:52:26.598Z,15.50
2018-09-28T07:53:30.964Z,15.60
2018-09-28T07:54:35.102Z,15.60
2018-09-28T07:55:39.436Z,15.70
2018-09-28T07:56:43.601Z,15.80
2018-09-28T07:57:47.846Z,15.80
2018-09-28T07:58:52.206Z,15.80
2018-09-28T07:59:56.508Z,15.90
2018-09-28T08:01:00.967Z,15.90
2018-09-28T08:02:05.357Z,15.90
2018-09-28T08:03:09.595Z,15.90
2018-09-28T08:04:13.820Z,16.00
2018-09-28T08:05:18.204Z,16.00
2018-09-28T08:06:22.752Z,16.10
2018-09-28T08:07:27.077Z,16.10
2018-09-28T08:08:31.419Z,16.10
2018-09-28T08:09:36.288Z,16.20
2018-09-28T08:10:40.729Z,16.30
2018-09-28T08:11:44.830Z,16.30
2018-09-28T08:12:48.946Z,16.40
2018-09-28T08:13:53.271Z,16.40
2018-09-28T08:14:57.603Z,16.40
2018-09-28T08:16:01.997Z,16.40
2018-09-28T08:17:06.366Z,16.40
2018-09-28T08:18:10.490Z,16.40
2018-09-28T08:19:14.929Z,16.40
2018-09-28T08:20:19.403Z,16.40
2018-09-28T08:21:23.811Z,16.50
2018-09-28T08:22:37.481Z,16.50
2018-09-28T08:23:41.818Z,16.50
2018-09-28T08:24:46.372Z,16.50
2018-09-28T08:25:50.576Z,16.60
2018-09-28T08:26:55.103Z,16.60
2018-09-28T08:27:59.518Z,16.60
2018-09-28T08:29:03.743Z,16.70
2018-09-28T08:30:08.335Z,16.70
2018-09-28T08:31:12.521Z,16.70
2018-09-28T08:32:16.825Z,16.80
2018-09-28T08:33:21.118Z,16.80
2018-09-28T08:34:25.229Z,16.70
2018-09-28T08:35:29.477Z,16.70
2018-09-28T08:36:33.956Z,16.80
2018-09-28T08:37:38.285Z,16.80
2018-09-28T08:38:42.499Z,16.80
2018-09-28T08:39:46.936Z,16.90
2018-09-28T08:40:51.396Z,16.90
2018-09-28T08:41:55.794Z,17.00
2018-09-28T08:42:59.934Z,17.00
2018-09-28T08:44:04.214Z,17.00
2018-09-28T08:45:08.734Z,17.00
2018-09-28T08:46:12.736Z,17.00
2018-09-28T08:47:16.798Z,17.10
2018-09-28T08:48:21.179Z,17.10
2018-09-28T08:49:25.492Z,17.10
2018-09-28T08:50:30.176Z,17.20
2018-09-28T08:51:34.478Z,17.10
2018-09-28T08:52:38.812Z,17.20
2018-09-28T08:53:43.094Z,17.20
2018-09-28T08:54:47.582Z,17.20
2018-09-28T08:55:51.744Z,17.20
2018-09-28T08:56:56.007Z,17.20
2018-09-28T08:58:00.482Z,17.20
2018-09-28T08:59:04.565Z,17.20
2018-09-28T09:00:08.927Z,17.20
2018-09-28T09:01:13.338Z,17.30
2018-09-28T09:02:17.596Z,17.40
2018-09-28T09:03:21.941Z,17.40
2018-09-28T09:04:26.440Z,17.40
2018-09-28T09:05:30.590Z,17.40
2018-09-28T09:06:34.820Z,17.40
2018-09-28T09:07:39.014Z,17.40
2018-09-28T09:08:43.650Z,17.50
2018-09-28T09:09:47.807Z,17.50
2018-09-28T09:10:51.966Z,17.50
2018-09-28T09:11:56.654Z,17.60
2018-09-28T09:13:01.033Z,17.50
2018-09-28T09:14:05.360Z,17.50
2018-09-28T09:15:09.794Z,17.50
2018-09-28T09:16:14.505Z,17.50
2018-09-28T09:17:18.646Z,17.60
2018-09-28T09:18:23.207Z,17.60
2018-09-28T09:19:27.862Z,17.70
2018-09-28T09:20:32.307Z,17.70
2018-09-28T09:21:36.709Z,17.60
2018-09-28T09:22:41.037Z,17.60
2018-09-28T09:23:45.355Z,17.60
2018-09-28T09:24:49.554Z,17.60
2018-09-28T09:25:53.877Z,17.60
2018-09-28T09:26:58.227Z,17.60
2018-09-28T09:28:02.407Z,17.70
2018-09-28T09:29:12.427Z,17.80
2018-09-28T09:30:17.420Z,17.80
2018-09-28T09:31:22.006Z,17.90
2018-09-28T09:32:26.224Z,18.00
2018-09-28T09:33:30.326Z,17.90
2018-09-28T09:34:34.588Z,17.90
2018-09-28T09:35:38.665Z,17.90
2018-09-28T09:36:42.962Z,17.90
2018-09-28T09:37:47.014Z,17.90
2018-09-28T09:38:51.471Z,17.90
2018-09-28T09:39:55.888Z,17.90
2018-09-28T09:41:00.435Z,17.90
2018-09-28T09:42:04.609Z,17.90
2018-09-28T09:43:08.794Z,17.90
2018-09-28T09:44:13.008Z,17.90
2018-09-28T09:45:17.390Z,18.00
2018-09-28T09:46:21.837Z,18.00
2018-09-28T09:47:26.265Z,18.00
2018-09-28T09:48:30.908Z,18.10
2018-09-28T09:49:35.620Z,18.10
2018-09-28T09:50:39.813Z,18.10
2018-09-28T09:51:44.292Z,18.10
2018-09-28T09:52:48.573Z,18.20
2018-09-28T09:53:53.070Z,18.20
2018-09-28T09:54:57.486Z,18.30
2018-09-28T09:56:01.686Z,18.30
2018-09-28T09:57:06.014Z,18.20
2018-09-28T09:58:10.299Z,18.20
2018-09-28T09:59:14.858Z,18.30
2018-09-28T10:02:41.794Z,18.30
2018-09-28T10:03:48.726Z,18.30
2018-09-28T10:04:52.922Z,18.50
2018-09-28T10:05:57.087Z,18.50
2018-09-28T10:07:01.324Z,18.50
2018-09-28T10:08:05.834Z,18.50
2018-09-28T10:09:12.016Z,18.50
2018-09-28T10:10:16.849Z,18.50
2018-09-28T10:11:21.316Z,18.60
2018-09-28T10:12:25.631Z,18.60
2018-09-28T10:13:29.828Z,18.60
2018-09-28T10:14:34.032Z,18.50
2018-09-28T10:15:38.739Z,18.60
2018-09-28T10:16:43.277Z,18.60
2018-09-28T10:17:47.463Z,18.50
2018-09-28T10:18:51.719Z,18.50
2018-09-28T10:19:56.261Z,18.50
2018-09-28T10:21:00.739Z,18.50
2018-09-28T10:22:05.179Z,18.70
2018-09-28T10:23:09.323Z,18.70
2018-09-28T10:24:13.670Z,18.70
2018-09-28T10:25:18.133Z,18.70
2018-09-28T10:26:22.563Z,18.70
2018-09-28T10:27:26.781Z,18.70
2018-09-28T10:28:31.209Z,18.80
2018-09-28T10:29:35.377Z,18.80
2018-09-28T10:30:40.024Z,18.90
2018-09-28T10:31:45.213Z,18.90
2018-09-28T10:32:49.438Z,18.90
2018-09-28T10:33:54.278Z,18.90
2018-09-28T10:34:58.653Z,19.00
2018-09-28T10:36:02.939Z,19.10
2018-09-28T10:37:07.309Z,19.10
2018-09-28T10:38:11.616Z,19.10
2018-09-28T10:39:16.021Z,19.00
2018-09-28T10:40:20.218Z,19.00
2018-09-28T10:41:24.534Z,18.90
2018-09-28T10:42:28.901Z,19.00
2018-09-28T10:43:33.315Z,19.00
2018-09-28T10:44:37.418Z,19.10
2018-09-28T10:45:41.525Z,19.00
2018-09-28T10:46:45.694Z,19.10
2018-09-28T10:47:49.877Z,19.20
2018-09-28T10:48:54.069Z,19.20
2018-09-28T10:49:58.399Z,19.20
2018-09-28T10:51:02.514Z,19.30
2018-09-28T10:52:07.033Z,19.30
2018-09-28T10:53:11.464Z,19.50
2018-09-28T10:54:15.661Z,19.40
2018-09-28T10:55:19.950Z,19.30
2018-09-28T10:56:25.954Z,19.40
2018-09-28T10:57:30.069Z,19.40
2018-09-28T10:58:34.567Z,19.40
2018-09-28T10:59:38.615Z,19.30
2018-09-28T11:00:42.903Z,19.20
2018-09-28T11:01:47.164Z,19.20
2018-09-28T11:02:51.721Z,19.20
2018-09-28T11:03:56.397Z,19.20
2018-09-28T11:05:00.938Z,19.20
2018-09-28T11:06:05.009Z,19.20
2018-09-28T11:07:09.250Z,19.30
2018-09-28T11:08:14.115Z,19.20
2018-09-28T11:09:18.460Z,19.30
2018-09-28T11:10:23.041Z,19.30
2018-09-28T11:11:27.386Z,19.30
2018-09-28T11:12:31.701Z,19.20
2018-09-28T11:13:35.918Z,19.20
2018-09-28T11:14:40.150Z,19.20
2018-09-28T11:15:44.401Z,19.30
2018-09-28T11:16:48.649Z,19.30
2018-09-28T11:17:53.110Z,19.30
2018-09-28T11:18:57.496Z,19.30
2018-09-28T11:20:01.780Z,19.30
2018-09-28T11:21:12.473Z,19.30
2018-09-28T11:22:16.916Z,19.40
2018-09-28T11:23:21.549Z,19.50
2018-09-28T11:24:26.255Z,19.60
2018-09-28T11:25:30.780Z,19.70
2018-09-28T11:26:35.091Z,19.80
2018-09-28T11:27:39.327Z,19.90
2018-09-28T11:28:43.578Z,19.80
2018-09-28T11:29:47.775Z,19.80
2018-09-28T11:30:52.216Z,19.90
2018-09-28T11:31:56.323Z,20.00
2018-09-28T11:33:00.586Z,20.00
2018-09-28T11:34:04.829Z,20.10
2018-09-28T11:35:09.147Z,20.00
2018-09-28T11:36:13.397Z,19.90
2018-09-28T11:37:17.852Z,19.70
2018-09-28T11:38:22.422Z,19.70
2018-09-28T11:39:26.519Z,19.60
2018-09-28T11:40:30.941Z,19.50
2018-09-28T11:41:35.269Z,19.50
2018-09-28T11:42:39.626Z,19.40
2018-09-28T11:43:43.957Z,19.50
2018-09-28T11:44:48.406Z,19.50
2018-09-28T11:45:53.075Z,19.60
2018-09-28T11:46:57.409Z,19.60
2018-09-28T11:48:01.595Z,19.60
2018-09-28T11:49:05.834Z,19.70
2018-09-28T11:50:10.530Z,19.80
2018-09-28T11:51:15.134Z,19.90
2018-09-28T11:52:21.153Z,19.90
2018-09-28T11:53:25.776Z,19.90
2018-09-28T11:54:30.223Z,20.00
2018-09-28T11:55:34.425Z,20.00
2018-09-28T11:56:38.542Z,20.00
2018-09-28T11:57:42.861Z,19.90
2018-09-28T11:58:46.999Z,19.90
2018-09-28T11:59:51.320Z,19.80
2018-09-28T12:00:55.609Z,19.70
2018-09-28T12:01:59.846Z,19.70
2018-09-28T12:03:04.218Z,19.60
2018-09-28T12:04:08.479Z,19.50
2018-09-28T12:05:12.835Z,19.50
2018-09-28T12:06:17.494Z,19.70
2018-09-28T12:07:21.967Z,19.70
2018-09-28T12:08:26.142Z,19.90
2018-09-28T12:09:30.465Z,19.90
2018-09-28T12:10:34.642Z,20.00
2018-09-28T12:11:39.019Z,19.90
2018-09-28T12:12:43.424Z,20.00
2018-09-28T12:13:47.488Z,20.20
2018-09-28T12:14:51.975Z,20.10
2018-09-28T12:15:56.487Z,20.00
2018-09-28T12:17:01.116Z,20.00
2018-09-28T12:18:05.483Z,20.10
2018-09-28T12:19:09.846Z,20.10
2018-09-28T12:20:14.110Z,20.00
2018-09-28T12:21:18.310Z,19.90
2018-09-28T12:22:22.649Z,19.90
2018-09-28T12:23:26.994Z,19.80
2018-09-28T12:24:31.316Z,19.70
2018-09-28T12:25:35.949Z,19.60
2018-09-28T12:26:40.382Z,19.70
2018-09-28T12:27:53.043Z,19.70
2018-09-28T12:28:57.833Z,19.70
2018-09-28T12:30:01.920Z,19.90
2018-09-28T12:31:06.448Z,20.10
2018-09-28T12:32:10.813Z,20.10
2018-09-28T12:33:15.222Z,20.10
2018-09-28T12:34:19.710Z,20.20
2018-09-28T12:35:24.186Z,20.20
2018-09-28T12:36:28.413Z,20.20
2018-09-28T12:37:32.710Z,20.20
2018-09-28T12:38:36.988Z,20.30
2018-09-28T12:39:41.336Z,20.30
2018-09-28T12:40:45.434Z,20.40
2018-09-28T12:41:49.882Z,20.40
2018-09-28T12:42:54.246Z,20.50
2018-09-28T12:43:58.545Z,20.70
2018-09-28T12:45:03.235Z,20.90
2018-09-28T12:46:07.505Z,21.10
2018-09-28T12:47:11.728Z,21.00
2018-09-28T12:48:16.093Z,20.90
2018-09-28T12:49:20.479Z,21.00
2018-09-28T12:50:24.685Z,20.90
2018-09-28T12:51:28.853Z,20.90
2018-09-28T12:52:32.963Z,21.00
2018-09-28T12:53:37.308Z,21.00
2018-09-28T12:54:41.662Z,20.90
2018-09-28T12:55:45.942Z,21.00
2018-09-28T12:56:50.505Z,21.10
2018-09-28T12:57:54.930Z,21.20
2018-09-28T12:59:04.809Z,21.20
2018-09-28T13:00:13.374Z,21.10
2018-09-28T13:01:17.829Z,21.10
2018-09-28T13:02:22.206Z,21.10
2018-09-28T13:03:26.298Z,21.00
2018-09-28T13:04:30.643Z,20.80
2018-09-28T13:05:34.861Z,20.80
2018-09-28T13:06:39.047Z,20.60
2018-09-28T13:07:43.156Z,20.70
2018-09-28T13:08:47.768Z,20.80
2018-09-28T13:09:51.849Z,21.00
2018-09-28T13:10:56.217Z,21.10
2018-09-28T13:12:00.213Z,21.20
2018-09-28T13:13:04.801Z,21.40
2018-09-28T13:14:09.553Z,21.70
2018-09-28T13:15:14.533Z,22.00
2018-09-28T13:16:18.759Z,22.20
2018-09-28T13:17:23.323Z,22.40
2018-09-28T13:18:27.953Z,22.50
2018-09-28T13:19:32.102Z,22.40
2018-09-28T13:20:36.386Z,22.50
2018-09-28T13:21:40.646Z,22.70
2018-09-28T13:22:45.003Z,22.70
2018-09-28T13:23:49.549Z,22.80
2018-09-28T13:24:53.811Z,22.90
2018-09-28T13:25:58.236Z,23.20
2018-09-28T13:27:02.412Z,23.40
2018-09-28T13:28:06.628Z,23.30
2018-09-28T13:29:10.950Z,23.30
2018-09-28T13:30:15.439Z,23.20
2018-09-28T13:31:19.678Z,23.10
2018-09-28T13:32:23.879Z,23.10
2018-09-28T13:33:28.255Z,23.30
2018-09-28T13:34:32.520Z,23.20
2018-09-28T13:35:42.674Z,23.30
2018-09-28T13:36:47.136Z,23.30
2018-09-28T13:37:51.148Z,23.20
2018-09-28T13:38:55.370Z,23.40
2018-09-28T13:39:59.818Z,23.60
2018-09-28T13:41:04.046Z,23.70
2018-09-28T13:42:08.300Z,23.80
2018-09-28T13:43:13.211Z,23.60
2018-09-28T13:44:17.386Z,23.40
2018-09-28T13:45:21.882Z,23.10
2018-09-28T13:46:26.177Z,22.40
2018-09-28T13:47:30.304Z,22.10
2018-09-28T13:48:34.894Z,22.10
2018-09-28T13:49:38.990Z,22.40
2018-09-28T13:50:46.398Z,22.70
2018-09-28T13:51:50.519Z,22.80
2018-09-28T13:52:55.169Z,22.90